createdAt,value
2022-08-17T00:00:43.353Z,20.60
2022-08-17T00:01:27.235Z,20.57
2022-08-17T00:02:26.964Z,20.53
2022-08-17T00:03:25.569Z,20.51
2022-08-17T00:04:25.695Z,20.48
2022-08-17T00:05:25.821Z,20.48
2022-08-17T00:06:25.957Z,20.44
2022-08-17T00:07:26.100Z,20.42
2022-08-17T00:08:26.248Z,20.38
2022-08-17T00:09:26.337Z,20.37
2022-08-17T00:10:26.485Z,20.31
2022-08-17T00:11:26.605Z,20.30
2022-08-17T00:12:42.216Z,20.30
2022-08-17T00:13:27.857Z,20.30
2022-08-17T00:14:26.998Z,20.27
2022-08-17T00:15:27.114Z,20.27
2022-08-17T00:16:52.599Z,20.30
2022-08-17T00:17:28.358Z,20.31
2022-08-17T00:19:02.213Z,20.30
2022-08-17T00:19:28.598Z,20.30
2022-08-17T00:20:30.496Z,20.33
2022-08-17T00:21:27.921Z,20.34
2022-08-17T00:22:34.964Z,20.31
2022-08-17T00:23:29.209Z,20.31
2022-08-17T00:24:28.288Z,20.26
2022-08-17T00:25:28.369Z,20.25
2022-08-17T00:26:44.228Z,20.23
2022-08-17T00:27:29.606Z,20.22
2022-08-17T00:28:28.729Z,20.20
2022-08-17T00:29:28.849Z,20.16
2022-08-17T00:30:29.008Z,20.13
2022-08-17T00:31:29.169Z,20.08
2022-08-17T00:33:12.189Z,20.07
2022-08-17T00:33:30.945Z,20.04
2022-08-17T00:34:29.555Z,20.04
2022-08-17T00:35:29.728Z,20.01
2022-08-17T00:36:29.869Z,20.00
2022-08-17T00:37:30.096Z,20.01
2022-08-17T00:38:30.148Z,20.02
2022-08-17T00:39:30.420Z,20.02
2022-08-17T00:40:40.804Z,20.01
2022-08-17T00:41:31.607Z,20.00
2022-08-17T00:42:31.370Z,20.00
2022-08-17T00:43:30.945Z,20.00
2022-08-17T00:44:31.269Z,20.01
2022-08-17T00:45:31.129Z,20.01
2022-08-17T00:46:31.270Z,19.98
2022-08-17T00:47:31.397Z,19.98
2022-08-17T00:48:31.539Z,20.00
2022-08-17T00:49:31.633Z,20.01
2022-08-17T00:50:31.776Z,20.01
2022-08-17T00:51:31.930Z,20.01
2022-08-17T00:52:32.055Z,20.01
2022-08-17T00:53:32.156Z,20.00
2022-08-17T00:54:32.343Z,19.98
2022-08-17T00:55:32.429Z,19.97
2022-08-17T00:56:32.566Z,20.00
2022-08-17T00:57:32.693Z,20.00
2022-08-17T00:58:36.062Z,20.04
2022-08-17T00:59:32.958Z,20.05
2022-08-17T01:00:33.128Z,20.07
2022-08-17T01:01:33.970Z,20.07
2022-08-17T01:02:40.412Z,20.08
2022-08-17T01:03:34.547Z,20.10
2022-08-17T01:04:33.669Z,20.12
2022-08-17T01:05:33.807Z,20.10
2022-08-17T01:06:33.947Z,20.10
2022-08-17T01:07:34.094Z,20.10
2022-08-17T01:08:34.237Z,20.08
2022-08-17T01:09:34.380Z,20.08
2022-08-17T01:10:57.423Z,20.07
2022-08-17T01:11:35.684Z,20.04
2022-08-17T01:12:36.392Z,20.02
2022-08-17T01:13:40.350Z,20.00
2022-08-17T01:14:36.110Z,19.97
2022-08-17T01:15:35.216Z,19.94
2022-08-17T01:16:35.318Z,19.90
2022-08-17T01:17:35.439Z,19.86
2022-08-17T01:18:35.638Z,19.85
2022-08-17T01:19:35.666Z,19.82
2022-08-17T01:20:48.304Z,19.78
2022-08-17T01:21:36.916Z,19.75
2022-08-17T01:22:36.067Z,19.72
2022-08-17T01:23:36.139Z,19.71
2022-08-17T01:24:36.291Z,19.70
2022-08-17T01:25:36.400Z,19.68
2022-08-17T01:26:36.541Z,19.64
2022-08-17T01:27:36.695Z,19.64
2022-08-17T01:28:53.643Z,19.64
2022-08-17T01:29:38.060Z,19.64
2022-08-17T01:30:57.830Z,19.58
2022-08-17T01:31:38.320Z,19.55
2022-08-17T01:32:37.450Z,19.49
2022-08-17T01:33:37.621Z,19.47
2022-08-17T01:34:43.882Z,19.43
2022-08-17T01:35:38.819Z,19.39
2022-08-17T01:36:37.947Z,19.35
2022-08-17T01:37:38.081Z,19.32
2022-08-17T01:38:40.177Z,19.30
2022-08-17T01:39:38.513Z,19.31
2022-08-17T01:40:38.497Z,19.27
2022-08-17T01:41:38.628Z,19.27
2022-08-17T01:42:38.763Z,19.28
2022-08-17T01:43:38.877Z,19.28
2022-08-17T01:44:38.996Z,19.25
2022-08-17T01:45:39.162Z,19.24
2022-08-17T01:46:39.269Z,19.21
2022-08-17T01:47:39.396Z,19.16
2022-08-17T01:48:39.609Z,19.12
2022-08-17T01:49:39.698Z,19.12
2022-08-17T01:50:40.750Z,19.09
2022-08-17T01:51:39.961Z,19.09
2022-08-17T01:52:40.092Z,19.06
2022-08-17T01:53:40.281Z,19.05
2022-08-17T01:54:42.342Z,19.02
2022-08-17T01:55:40.466Z,19.01
2022-08-17T01:56:40.598Z,18.97
2022-08-17T01:57:40.708Z,18.96
2022-08-17T01:58:40.838Z,18.91
2022-08-17T01:59:40.998Z,18.87
2022-08-17T02:00:46.908Z,18.83
2022-08-17T02:01:42.298Z,18.82
2022-08-17T02:02:41.391Z,18.78
2022-08-17T02:03:41.545Z,18.75
2022-08-17T02:04:42.671Z,18.75
2022-08-17T02:05:41.790Z,18.76
2022-08-17T02:06:44.861Z,18.83
2022-08-17T02:07:56.015Z,18.82
2022-08-17T02:09:02.534Z,18.79
2022-08-17T02:09:43.339Z,18.79
2022-08-17T02:10:46.763Z,18.75
2022-08-17T02:11:42.636Z,18.71
2022-08-17T02:12:42.768Z,18.69
2022-08-17T02:13:42.999Z,18.66
2022-08-17T02:14:43.059Z,18.65
2022-08-17T02:15:43.221Z,18.65
2022-08-17T02:16:43.360Z,18.64
2022-08-17T02:17:43.455Z,18.64
2022-08-17T02:18:43.588Z,18.60
2022-08-17T02:19:44.452Z,18.57
2022-08-17T02:20:44.158Z,18.54
2022-08-17T02:21:44.057Z,18.50
2022-08-17T02:22:44.138Z,18.42
2022-08-17T02:23:44.299Z,18.41
2022-08-17T02:25:00.591Z,18.42
2022-08-17T02:25:45.630Z,18.42
2022-08-17T02:26:44.721Z,18.41
2022-08-17T02:27:44.799Z,18.41
2022-08-17T02:28:44.953Z,18.46
2022-08-17T02:29:45.855Z,18.46
2022-08-17T02:31:01.946Z,18.46
2022-08-17T02:31:46.414Z,18.47
2022-08-17T02:32:45.544Z,18.47
2022-08-17T02:33:45.690Z,18.50
2022-08-17T02:34:46.860Z,18.51
2022-08-17T02:35:46.000Z,18.50
2022-08-17T02:36:46.188Z,18.49
2022-08-17T02:37:46.281Z,18.47
2022-08-17T02:38:47.396Z,18.46
2022-08-17T02:39:46.610Z,18.47
2022-08-17T02:40:46.727Z,18.41
2022-08-17T02:41:46.820Z,18.41
2022-08-17T02:42:46.957Z,18.39
2022-08-17T02:43:47.040Z,18.36
2022-08-17T02:44:47.179Z,18.35
2022-08-17T02:45:47.289Z,18.32
2022-08-17T02:46:47.430Z,18.34
2022-08-17T02:47:47.557Z,18.34
2022-08-17T02:48:47.687Z,18.36
2022-08-17T02:49:54.169Z,18.38
2022-08-17T02:50:48.970Z,18.38
2022-08-17T02:51:48.097Z,18.38
2022-08-17T02:52:59.603Z,18.42
2022-08-17T02:53:49.360Z,18.46
2022-08-17T02:54:48.519Z,18.47
2022-08-17T02:55:48.711Z,18.49
2022-08-17T02:56:48.876Z,18.50
2022-08-17T02:57:48.918Z,18.53
2022-08-17T02:58:49.019Z,18.60
2022-08-17T02:59:49.274Z,18.65
2022-08-17T03:00:49.277Z,18.75
2022-08-17T03:01:49.477Z,18.79
2022-08-17T03:02:49.764Z,18.84
2022-08-17T03:03:49.710Z,18.86
2022-08-17T03:04:49.851Z,18.86
2022-08-17T03:05:49.953Z,18.86
2022-08-17T03:06:50.112Z,18.94
2022-08-17T03:07:50.241Z,18.97
2022-08-17T03:08:50.390Z,19.02
2022-08-17T03:09:50.560Z,19.06
2022-08-17T03:10:50.689Z,19.09
2022-08-17T03:11:50.858Z,19.15
2022-08-17T03:12:52.015Z,19.23
2022-08-17T03:13:50.991Z,19.24
2022-08-17T03:14:51.146Z,19.27
2022-08-17T03:15:51.267Z,19.27
2022-08-17T03:16:51.378Z,19.27
2022-08-17T03:17:51.499Z,19.25
2022-08-17T03:18:53.626Z,19.21
2022-08-17T03:19:51.844Z,19.21
2022-08-17T03:20:51.890Z,19.15
2022-08-17T03:21:54.832Z,19.10
2022-08-17T03:22:53.663Z,19.07
2022-08-17T03:23:54.399Z,19.02
2022-08-17T03:24:52.401Z,18.99
2022-08-17T03:25:53.751Z,18.93
2022-08-17T03:26:53.040Z,18.91
2022-08-17T03:27:52.749Z,18.91
2022-08-17T03:28:52.903Z,18.90
2022-08-17T03:29:52.996Z,18.91
2022-08-17T03:30:53.140Z,18.90
2022-08-17T03:31:53.238Z,18.87
2022-08-17T03:32:53.401Z,18.84
2022-08-17T03:33:53.524Z,18.83
2022-08-17T03:34:53.669Z,18.82
2022-08-17T03:35:53.770Z,18.76
2022-08-17T03:36:53.922Z,18.75
2022-08-17T03:38:00.890Z,18.74
2022-08-17T03:38:55.190Z,18.75
2022-08-17T03:39:54.378Z,18.75
2022-08-17T03:40:59.010Z,18.75
2022-08-17T03:41:55.534Z,18.75
2022-08-17T03:42:54.670Z,18.76
2022-08-17T03:43:54.837Z,18.78
2022-08-17T03:44:54.969Z,18.79
2022-08-17T03:45:55.091Z,18.86
2022-08-17T03:46:55.179Z,18.93
2022-08-17T03:47:55.318Z,19.02
2022-08-17T03:48:55.437Z,19.06
2022-08-17T03:49:55.568Z,19.07
2022-08-17T03:50:55.712Z,19.10
2022-08-17T03:51:55.874Z,19.07
2022-08-17T03:52:55.998Z,19.09
2022-08-17T03:53:56.192Z,19.09
2022-08-17T03:54:56.250Z,19.07
2022-08-17T03:55:56.394Z,19.07
2022-08-17T03:56:56.519Z,19.06
2022-08-17T03:57:56.672Z,19.12
2022-08-17T03:58:56.760Z,19.15
2022-08-17T03:59:56.918Z,19.21
2022-08-17T04:00:57.103Z,19.21
2022-08-17T04:01:57.200Z,19.23
2022-08-17T04:02:57.379Z,19.25
2022-08-17T04:03:57.447Z,19.32
2022-08-17T04:04:57.588Z,19.39
2022-08-17T04:05:57.756Z,19.43
2022-08-17T04:06:57.902Z,19.46
2022-08-17T04:07:58.104Z,19.47
2022-08-17T04:08:58.147Z,19.45
2022-08-17T04:09:58.420Z,19.46
2022-08-17T04:10:58.477Z,19.47
2022-08-17T04:12:01.324Z,19.55
2022-08-17T04:12:59.749Z,19.58
2022-08-17T04:13:58.909Z,19.61
2022-08-17T04:14:59.002Z,19.58
2022-08-17T04:15:59.130Z,19.57
2022-08-17T04:16:59.283Z,19.55
2022-08-17T04:17:59.400Z,19.53
2022-08-17T04:18:59.508Z,19.50
2022-08-17T04:19:59.630Z,19.50
2022-08-17T04:20:59.802Z,19.49
2022-08-17T04:21:59.929Z,19.46
2022-08-17T04:23:00.046Z,19.43
2022-08-17T04:24:00.212Z,19.40
2022-08-17T04:25:00.295Z,19.38
2022-08-17T04:26:00.430Z,19.35
2022-08-17T04:27:00.574Z,19.35
2022-08-17T04:28:00.667Z,19.39
2022-08-17T04:29:00.820Z,19.39
2022-08-17T04:30:00.957Z,19.39
2022-08-17T04:31:01.102Z,19.39
2022-08-17T04:32:01.220Z,19.38
2022-08-17T04:33:06.283Z,19.39
2022-08-17T04:34:02.438Z,19.42
2022-08-17T04:35:01.571Z,19.43
2022-08-17T04:36:01.722Z,19.46
2022-08-17T04:37:01.819Z,19.50
2022-08-17T04:38:01.973Z,19.57
2022-08-17T04:39:02.071Z,19.60
2022-08-17T04:40:04.373Z,19.65
2022-08-17T04:41:02.319Z,19.67
2022-08-17T04:42:02.471Z,19.71
2022-08-17T04:43:02.639Z,19.72
2022-08-17T04:44:02.753Z,19.76
2022-08-17T04:45:02.841Z,19.78
2022-08-17T04:46:02.987Z,19.80
2022-08-17T04:47:03.091Z,19.83
2022-08-17T04:48:03.239Z,19.83
2022-08-17T04:49:03.362Z,19.83
2022-08-17T04:50:03.469Z,19.85
2022-08-17T04:51:03.589Z,19.86
2022-08-17T04:52:04.673Z,19.85
2022-08-17T04:53:03.839Z,19.83
2022-08-17T04:54:03.969Z,19.83
2022-08-17T04:55:04.050Z,19.82
2022-08-17T04:56:04.216Z,19.80
2022-08-17T04:57:04.308Z,19.83
2022-08-17T04:58:04.621Z,19.86
2022-08-17T04:59:06.023Z,19.86
2022-08-17T05:00:04.780Z,19.87
2022-08-17T05:01:04.810Z,19.87
2022-08-17T05:02:04.935Z,19.89
2022-08-17T05:03:05.030Z,19.90
2022-08-17T05:04:33.537Z,19.92
2022-08-17T05:06:19.584Z,19.94
2022-08-17T05:07:23.462Z,19.97
2022-08-17T05:08:20.823Z,20.01
2022-08-17T05:09:19.930Z,20.02
2022-08-17T05:10:20.031Z,20.04
2022-08-17T05:11:20.151Z,20.04
2022-08-17T05:12:20.302Z,20.04
2022-08-17T05:13:20.407Z,20.05
2022-08-17T05:14:20.564Z,20.08
2022-08-17T05:15:21.387Z,20.08
2022-08-17T05:16:20.773Z,20.12
2022-08-17T05:17:20.914Z,20.13
2022-08-17T05:18:21.004Z,20.16
2022-08-17T05:19:21.144Z,20.17
2022-08-17T05:20:21.236Z,20.20
2022-08-17T05:21:21.364Z,20.23
2022-08-17T05:22:21.471Z,20.26
2022-08-17T05:23:21.571Z,20.30
2022-08-17T05:24:41.240Z,20.33
2022-08-17T05:25:25.621Z,20.35
2022-08-17T05:26:26.056Z,20.41
2022-08-17T05:27:23.499Z,20.42
2022-08-17T05:28:24.112Z,20.46
2022-08-17T05:29:23.337Z,20.50
2022-08-17T05:30:23.423Z,20.51
2022-08-17T05:31:22.553Z,20.56
2022-08-17T05:32:38.185Z,20.57
2022-08-17T05:33:23.842Z,20.58
2022-08-17T05:34:22.992Z,20.61
2022-08-17T05:35:23.092Z,20.64
2022-08-17T05:36:42.079Z,20.69
2022-08-17T05:37:24.326Z,20.72
2022-08-17T05:38:23.460Z,20.76
2022-08-17T05:39:23.617Z,20.81
2022-08-17T05:40:23.803Z,20.85
2022-08-17T05:41:23.835Z,20.88
2022-08-17T05:42:24.673Z,20.90
2022-08-17T05:43:24.730Z,20.93
2022-08-17T05:44:24.794Z,20.97
2022-08-17T05:45:54.937Z,20.98
2022-08-17T05:46:25.854Z,21.05
2022-08-17T05:47:24.601Z,21.06
2022-08-17T05:48:39.160Z,21.12
2022-08-17T05:49:25.970Z,21.15
2022-08-17T05:50:27.219Z,21.19
2022-08-17T05:51:26.110Z,21.21
2022-08-17T05:52:25.173Z,21.24
2022-08-17T05:53:25.270Z,21.30
2022-08-17T05:54:25.375Z,21.34
2022-08-17T05:55:25.523Z,21.37
2022-08-17T05:56:30.089Z,21.38
2022-08-17T05:57:26.742Z,21.43
2022-08-17T05:58:25.832Z,21.45
2022-08-17T05:59:25.963Z,21.49
2022-08-17T06:00:30.295Z,21.49
2022-08-17T06:01:26.254Z,21.49
2022-08-17T06:02:26.336Z,21.49
2022-08-17T06:03:26.454Z,21.53
2022-08-17T06:04:26.582Z,21.53
2022-08-17T06:05:26.737Z,21.58
2022-08-17T06:06:31.320Z,21.64
2022-08-17T06:07:26.965Z,21.66
2022-08-17T06:08:27.083Z,21.70
2022-08-17T06:09:33.029Z,21.71
2022-08-17T06:10:28.460Z,21.73
2022-08-17T06:11:27.446Z,21.75
2022-08-17T06:12:27.576Z,21.81
2022-08-17T06:13:27.692Z,21.86
2022-08-17T06:14:27.825Z,21.93
2022-08-17T06:15:27.966Z,21.98
2022-08-17T06:16:34.455Z,22.05
2022-08-17T06:17:29.173Z,22.11
2022-08-17T06:18:28.299Z,22.17
2022-08-17T06:19:28.401Z,22.23
2022-08-17T06:20:28.574Z,22.23
2022-08-17T06:21:30.384Z,22.27
2022-08-17T06:22:28.806Z,22.35
2022-08-17T06:23:28.895Z,22.38
2022-08-17T06:24:29.014Z,22.39
2022-08-17T06:25:29.126Z,22.45
2022-08-17T06:26:38.349Z,22.51
2022-08-17T06:27:30.406Z,22.59
2022-08-17T06:28:29.454Z,22.64
2022-08-17T06:29:29.574Z,22.70
2022-08-17T06:30:57.361Z,22.76
2022-08-17T06:31:30.839Z,22.85
2022-08-17T06:32:29.926Z,22.89
2022-08-17T06:33:30.094Z,22.91
2022-08-17T06:34:30.136Z,22.97
2022-08-17T06:35:31.998Z,22.99
2022-08-17T06:36:30.470Z,22.99
2022-08-17T06:37:30.536Z,23.07
2022-08-17T06:38:38.525Z,23.11
2022-08-17T06:39:31.820Z,23.12
2022-08-17T06:40:30.923Z,23.19
2022-08-17T06:41:31.055Z,23.25
2022-08-17T06:42:59.994Z,23.26
2022-08-17T06:43:32.257Z,23.34
2022-08-17T06:44:43.615Z,23.38
2022-08-17T06:45:32.511Z,23.39
2022-08-17T06:46:31.657Z,23.45
2022-08-17T06:47:31.762Z,23.49
2022-08-17T06:48:31.866Z,23.47
2022-08-17T06:49:31.978Z,23.45
2022-08-17T06:50:32.069Z,23.50
2022-08-17T06:51:32.237Z,23.53
2022-08-17T06:52:45.630Z,23.63
2022-08-17T06:53:33.464Z,23.77
2022-08-17T06:54:32.566Z,23.84
2022-08-17T06:55:37.709Z,23.96
2022-08-17T06:56:54.105Z,24.06
2022-08-17T06:57:33.960Z,24.18
2022-08-17T06:58:33.068Z,24.31
2022-08-17T06:59:54.828Z,24.41
2022-08-17T07:00:34.330Z,24.48
2022-08-17T07:01:33.464Z,24.60
2022-08-17T07:02:51.304Z,24.71
2022-08-17T07:03:34.624Z,24.77
2022-08-17T07:04:33.758Z,24.89
2022-08-17T07:05:33.878Z,24.97
2022-08-17T07:06:33.985Z,24.98
2022-08-17T07:07:34.146Z,25.07
2022-08-17T07:08:35.329Z,25.14
2022-08-17T07:09:34.378Z,25.14
2022-08-17T07:10:34.486Z,25.17
2022-08-17T07:11:34.617Z,25.22
2022-08-17T07:12:34.738Z,25.29
2022-08-17T07:13:34.847Z,25.34
2022-08-17T07:14:34.985Z,25.36
2022-08-17T07:15:35.099Z,25.45
2022-08-17T07:16:35.200Z,25.48
2022-08-17T07:17:46.731Z,25.53
2022-08-17T07:18:36.479Z,25.54
2022-08-17T07:19:35.537Z,25.60
2022-08-17T07:20:35.680Z,25.60
2022-08-17T07:21:35.767Z,25.64
2022-08-17T07:22:53.512Z,25.69
2022-08-17T07:23:37.019Z,25.75
2022-08-17T07:24:38.101Z,25.74
2022-08-17T07:25:36.300Z,25.82
2022-08-17T07:26:36.367Z,25.83
2022-08-17T07:27:36.519Z,25.89
2022-08-17T07:28:36.660Z,25.89
2022-08-17T07:29:36.779Z,25.91
2022-08-17T07:30:37.127Z,25.91
2022-08-17T07:31:37.976Z,25.93
2022-08-17T07:32:37.099Z,25.96
2022-08-17T07:33:37.235Z,26.00
2022-08-17T07:34:37.369Z,26.06
2022-08-17T07:35:40.828Z,26.03
2022-08-17T07:36:38.640Z,26.09
2022-08-17T07:37:37.779Z,26.20
2022-08-17T07:38:37.912Z,26.21
2022-08-17T07:40:15.147Z,26.23
2022-08-17T07:40:39.133Z,26.31
2022-08-17T07:41:53.487Z,26.39
2022-08-17T07:42:44.515Z,26.44
2022-08-17T07:43:39.531Z,26.39
2022-08-17T07:44:38.609Z,26.38
2022-08-17T07:45:38.760Z,26.47
2022-08-17T07:46:38.880Z,26.49
2022-08-17T07:47:39.010Z,26.47
2022-08-17T07:48:39.077Z,26.46
2022-08-17T07:49:39.220Z,26.38
2022-08-17T07:50:39.379Z,26.41
2022-08-17T07:51:39.475Z,26.46
2022-08-17T07:52:50.573Z,26.53
2022-08-17T07:53:40.742Z,26.51
2022-08-17T07:54:39.862Z,26.53
2022-08-17T07:55:40.071Z,26.53
2022-08-17T07:56:40.110Z,26.49
2022-08-17T07:57:40.254Z,26.51
2022-08-17T07:58:40.391Z,26.56
2022-08-17T07:59:40.697Z,26.59
2022-08-17T08:00:40.670Z,26.59
2022-08-17T08:01:42.021Z,26.60
2022-08-17T08:02:40.931Z,26.56
2022-08-17T08:03:41.071Z,26.60
2022-08-17T08:05:49.879Z,26.59
2022-08-17T08:06:42.420Z,26.60
2022-08-17T08:07:41.558Z,26.65
2022-08-17T08:08:41.712Z,26.73
2022-08-17T08:09:41.825Z,26.76
2022-08-17T08:10:45.048Z,26.79
2022-08-17T08:11:44.370Z,26.79
2022-08-17T08:12:42.160Z,26.86
2022-08-17T08:13:42.362Z,26.76
2022-08-17T08:14:42.406Z,26.73
2022-08-17T08:15:45.214Z,26.73
2022-08-17T08:16:43.653Z,26.60
2022-08-17T08:17:42.869Z,26.54
2022-08-17T08:18:55.794Z,26.46
2022-08-17T08:19:44.052Z,26.35
2022-08-17T08:20:51.745Z,26.32
2022-08-17T08:21:44.307Z,26.38
2022-08-17T08:22:43.440Z,26.50
2022-08-17T08:23:43.616Z,26.59
2022-08-17T08:24:43.695Z,26.60
2022-08-17T08:25:43.849Z,26.68
2022-08-17T08:26:43.945Z,26.73
2022-08-17T08:27:44.093Z,26.83
2022-08-17T08:28:44.214Z,26.90
2022-08-17T08:29:44.322Z,27.03
2022-08-17T08:30:44.433Z,27.09
2022-08-17T08:31:44.566Z,27.20
2022-08-17T08:32:44.715Z,27.23
2022-08-17T08:33:44.855Z,27.09
2022-08-17T08:35:01.062Z,27.24
2022-08-17T08:35:46.074Z,27.35
2022-08-17T08:37:12.583Z,27.43
2022-08-17T08:37:46.300Z,27.48
2022-08-17T08:38:45.381Z,27.39
2022-08-17T08:39:45.638Z,27.39
2022-08-17T08:40:45.663Z,27.33
2022-08-17T08:41:45.821Z,27.43
2022-08-17T08:42:45.950Z,27.40
2022-08-17T08:43:50.810Z,27.49
2022-08-17T08:45:00.207Z,27.69
2022-08-17T08:45:47.288Z,27.81
2022-08-17T08:46:46.391Z,27.83
2022-08-17T08:47:46.622Z,27.80
2022-08-17T08:48:56.816Z,27.77
2022-08-17T08:50:04.653Z,27.68
2022-08-17T08:50:49.835Z,27.78
2022-08-17T08:51:47.035Z,27.90
2022-08-17T08:52:47.136Z,28.06
2022-08-17T08:53:47.286Z,28.17
2022-08-17T08:54:47.415Z,28.27
2022-08-17T08:55:47.580Z,28.27
2022-08-17T08:57:11.929Z,28.52
2022-08-17T08:57:48.910Z,28.88
2022-08-17T08:58:47.907Z,29.30
2022-08-17T08:59:51.151Z,29.60
2022-08-17T09:00:49.174Z,29.44
2022-08-17T09:01:48.363Z,29.36
2022-08-17T09:02:48.442Z,29.27
2022-08-17T09:03:53.497Z,29.15
2022-08-17T09:05:13.007Z,29.18
2022-08-17T09:05:49.874Z,29.32
2022-08-17T09:06:48.937Z,29.39
2022-08-17T09:07:49.152Z,29.60
2022-08-17T09:08:49.193Z,29.69
2022-08-17T09:09:49.389Z,29.49
2022-08-17T09:10:49.479Z,29.26
2022-08-17T09:12:01.901Z,29.25
2022-08-17T09:12:50.709Z,29.15
2022-08-17T09:13:54.383Z,29.26
2022-08-17T09:14:50.950Z,29.30
2022-08-17T09:15:50.100Z,29.23
2022-08-17T09:16:50.201Z,29.21
2022-08-17T09:18:03.519Z,29.25
2022-08-17T09:19:00.794Z,29.11
2022-08-17T09:19:51.635Z,28.82
2022-08-17T09:20:50.838Z,28.89
2022-08-17T09:21:50.818Z,28.98
2022-08-17T09:22:50.973Z,29.05
2022-08-17T09:23:51.120Z,29.12
2022-08-17T09:24:51.229Z,29.25
2022-08-17T09:25:51.386Z,29.33
2022-08-17T09:26:51.500Z,29.37
2022-08-17T09:27:51.862Z,29.44
2022-08-17T09:28:51.710Z,29.41
2022-08-17T09:29:51.895Z,29.30
2022-08-17T09:30:51.995Z,28.98
2022-08-17T09:31:52.114Z,28.91
2022-08-17T09:32:52.246Z,28.92
2022-08-17T09:33:52.388Z,28.80
2022-08-17T09:34:52.532Z,28.85
2022-08-17T09:35:52.694Z,28.91
2022-08-17T09:36:52.792Z,29.00
2022-08-17T09:37:52.906Z,28.97
2022-08-17T09:38:52.999Z,28.97
2022-08-17T09:39:53.182Z,29.10
2022-08-17T09:40:53.262Z,29.00
2022-08-17T09:41:53.397Z,28.80
2022-08-17T09:42:53.472Z,28.55
2022-08-17T09:43:53.613Z,28.45
2022-08-17T09:44:53.709Z,28.43
2022-08-17T09:45:53.874Z,28.62
2022-08-17T09:46:54.001Z,28.80
2022-08-17T09:47:54.196Z,28.91
2022-08-17T09:48:54.259Z,28.95
2022-08-17T09:49:54.401Z,28.91
2022-08-17T09:51:03.708Z,28.94
2022-08-17T09:51:55.713Z,28.91
2022-08-17T09:52:54.802Z,28.83
2022-08-17T09:53:54.954Z,28.89
2022-08-17T09:54:55.060Z,28.87
2022-08-17T09:55:55.169Z,28.94
2022-08-17T09:57:11.762Z,29.02
2022-08-17T09:57:56.423Z,29.00
2022-08-17T09:58:55.489Z,29.02
2022-08-17T09:59:55.628Z,29.05
2022-08-17T10:00:55.814Z,29.14
2022-08-17T10:01:55.922Z,29.20
2022-08-17T10:02:56.042Z,29.27
2022-08-17T10:03:56.202Z,29.36
2022-08-17T10:04:56.295Z,29.39
2022-08-17T10:05:57.102Z,29.42
2022-08-17T10:06:56.555Z,29.54
2022-08-17T10:07:56.731Z,29.47
2022-08-17T10:08:57.222Z,29.27
2022-08-17T10:09:56.926Z,29.20
2022-08-17T10:10:57.125Z,28.94
2022-08-17T10:11:57.614Z,28.92
2022-08-17T10:12:57.355Z,29.05
2022-08-17T10:13:59.642Z,29.14
2022-08-17T10:14:57.616Z,29.11
2022-08-17T10:15:58.736Z,29.10
2022-08-17T10:16:57.915Z,29.05
2022-08-17T10:17:58.462Z,29.02
2022-08-17T10:18:58.114Z,28.87
2022-08-17T10:19:58.232Z,28.87
2022-08-17T10:20:58.384Z,28.94
2022-08-17T10:22:01.380Z,28.87
2022-08-17T10:22:59.596Z,28.76
2022-08-17T10:23:58.747Z,28.83
2022-08-17T10:25:21.002Z,28.98
2022-08-17T10:26:00.069Z,28.92
2022-08-17T10:26:59.087Z,28.89
2022-08-17T10:27:59.228Z,28.91
2022-08-17T10:28:59.313Z,28.77
2022-08-17T10:29:59.461Z,28.83
2022-08-17T10:31:23.419Z,28.87
2022-08-17T10:32:00.720Z,28.89
2022-08-17T10:32:59.813Z,29.00
2022-08-17T10:34:00.003Z,29.05
2022-08-17T10:35:00.103Z,28.97
2022-08-17T10:36:00.223Z,29.00
2022-08-17T10:37:00.295Z,28.82
2022-08-17T10:38:00.474Z,28.73
2022-08-17T10:39:00.586Z,28.80
2022-08-17T10:40:00.811Z,28.77
2022-08-17T10:41:00.811Z,28.70
2022-08-17T10:42:00.982Z,28.65
2022-08-17T10:43:01.057Z,28.77
2022-08-17T10:44:39.055Z,28.92
2022-08-17T10:45:02.327Z,29.11
2022-08-17T10:46:27.758Z,29.26
2022-08-17T10:47:02.530Z,29.35
2022-08-17T10:48:05.800Z,29.25
2022-08-17T10:49:02.776Z,29.20
2022-08-17T10:50:01.928Z,29.12
2022-08-17T10:51:02.049Z,29.03
2022-08-17T10:52:02.167Z,29.11
2022-08-17T10:53:02.308Z,29.15
2022-08-17T10:54:02.420Z,28.83
2022-08-17T10:55:02.538Z,28.80
2022-08-17T10:56:02.647Z,28.76
2022-08-17T10:57:02.773Z,28.70
2022-08-17T10:58:02.919Z,28.60
2022-08-17T10:59:03.003Z,28.52
2022-08-17T11:00:03.139Z,28.51
2022-08-17T11:01:03.266Z,28.55
2022-08-17T11:02:03.337Z,28.54
2022-08-17T11:03:03.476Z,28.55
2022-08-17T11:04:03.607Z,28.57
2022-08-17T11:05:03.801Z,28.51
2022-08-17T11:06:03.885Z,28.43
2022-08-17T11:07:04.007Z,28.38
2022-08-17T11:08:04.135Z,28.38
2022-08-17T11:09:04.253Z,28.30
2022-08-17T11:10:04.400Z,28.24
2022-08-17T11:11:04.551Z,28.24
2022-08-17T11:12:04.648Z,28.25
2022-08-17T11:13:04.795Z,28.25
2022-08-17T11:14:04.888Z,28.24
2022-08-17T11:15:05.047Z,28.06
2022-08-17T11:16:08.416Z,28.15
2022-08-17T11:17:05.306Z,28.25
2022-08-17T11:18:05.441Z,28.24
2022-08-17T11:19:06.719Z,28.28
2022-08-17T11:20:05.670Z,28.42
2022-08-17T11:21:05.809Z,28.50
2022-08-17T11:22:05.959Z,28.42
2022-08-17T11:23:06.078Z,28.42
2022-08-17T11:24:06.163Z,28.28
2022-08-17T11:25:06.290Z,28.18
2022-08-17T11:26:06.441Z,28.21
2022-08-17T11:27:06.550Z,28.32
2022-08-17T11:28:06.690Z,28.40
2022-08-17T11:29:07.550Z,28.32
2022-08-17T11:30:06.977Z,28.23
2022-08-17T11:31:07.536Z,28.23
2022-08-17T11:32:07.198Z,28.14
2022-08-17T11:33:07.344Z,28.01
2022-08-17T11:34:07.437Z,27.91
2022-08-17T11:35:07.592Z,27.88
2022-08-17T11:36:07.663Z,27.91
2022-08-17T11:37:07.810Z,27.90
2022-08-17T11:38:13.857Z,27.95
2022-08-17T11:39:09.099Z,27.78
2022-08-17T11:40:08.285Z,27.63
2022-08-17T11:41:08.341Z,27.43
2022-08-17T11:42:08.439Z,27.31
2022-08-17T11:43:08.587Z,27.16
2022-08-17T11:44:08.712Z,27.20
2022-08-17T11:45:08.825Z,27.18
2022-08-17T11:46:08.922Z,27.13
2022-08-17T11:47:09.066Z,27.15
2022-08-17T11:48:27.085Z,27.21
2022-08-17T11:49:10.352Z,27.23
2022-08-17T11:50:09.490Z,27.23
2022-08-17T11:51:09.572Z,27.21
2022-08-17T11:52:09.660Z,27.18
2022-08-17T11:53:09.812Z,27.16
2022-08-17T11:55:33.968Z,27.08
2022-08-17T11:56:11.132Z,27.03
2022-08-17T11:57:10.273Z,26.91
2022-08-17T11:58:10.415Z,26.87
2022-08-17T11:59:10.552Z,26.84
2022-08-17T12:00:10.715Z,26.84
2022-08-17T12:01:12.329Z,26.78
2022-08-17T12:02:11.008Z,26.79
2022-08-17T12:03:11.122Z,26.76
2022-08-17T12:04:11.276Z,26.76
2022-08-17T12:05:12.169Z,26.69
2022-08-17T12:06:11.518Z,26.68
2022-08-17T12:07:11.593Z,26.60
2022-08-17T12:08:11.692Z,26.50
2022-08-17T12:09:11.842Z,26.51
2022-08-17T12:10:12.056Z,26.47
2022-08-17T12:11:12.093Z,26.47
2022-08-17T12:12:14.834Z,26.47
2022-08-17T12:13:12.384Z,26.51
2022-08-17T12:14:17.335Z,26.44
2022-08-17T12:15:13.668Z,26.50
2022-08-17T12:16:12.746Z,26.47
2022-08-17T12:17:12.881Z,26.51
2022-08-17T12:18:13.993Z,26.57
2022-08-17T12:19:13.183Z,26.65
2022-08-17T12:20:14.659Z,26.69
2022-08-17T12:21:13.415Z,26.81
2022-08-17T12:22:13.482Z,26.87
2022-08-17T12:23:13.637Z,26.94
2022-08-17T12:24:13.735Z,27.01
2022-08-17T12:25:14.126Z,27.03
2022-08-17T12:26:14.003Z,27.06
2022-08-17T12:27:14.108Z,27.11
2022-08-17T12:28:17.956Z,27.20
2022-08-17T12:29:18.339Z,27.20
2022-08-17T12:30:17.455Z,27.15
2022-08-17T12:31:14.626Z,27.16
2022-08-17T12:32:14.754Z,27.12
2022-08-17T12:33:25.594Z,27.05
2022-08-17T12:34:15.995Z,27.03
2022-08-17T12:35:15.177Z,26.94
2022-08-17T12:36:15.269Z,26.88
2022-08-17T12:37:15.363Z,26.84
2022-08-17T12:38:26.906Z,26.83
2022-08-17T12:39:21.367Z,26.78
2022-08-17T12:40:16.764Z,26.75
2022-08-17T12:41:15.924Z,26.73
2022-08-17T12:42:16.024Z,26.64
2022-08-17T12:43:16.445Z,26.59
2022-08-17T12:44:16.253Z,26.56
2022-08-17T12:45:16.392Z,26.54
2022-08-17T12:46:16.526Z,26.50
2022-08-17T12:47:21.584Z,26.49
2022-08-17T12:48:17.778Z,26.49
2022-08-17T12:49:16.904Z,26.46
2022-08-17T12:50:29.120Z,26.47
2022-08-17T12:51:18.168Z,26.46
2022-08-17T12:52:18.035Z,26.42
2022-08-17T12:53:17.450Z,26.35
2022-08-17T12:54:17.524Z,26.39
2022-08-17T12:55:17.678Z,26.42
2022-08-17T12:56:17.786Z,26.32
2022-08-17T12:57:18.008Z,26.31